Time;durP1;ratioP1;P1;durP2;ratioP2;P2;SDS_P1;SDS_P2;PMS_P1;PMS_P2;Temp;Humidity;BMP_temperature;BMP_pressure;BME280_temperature;BME280_humidity;BME280_pressure;Samples;Min_cycle;Max_cycle;Signal;HPM_P1;HPM_P2
2022/03/23 05:30:52;;;;;;;;;30.75;24.00;;;;;12.54;37.02;102535.06;5052215;27;45473;-76
2022/03/23 05:33:17;;;;;;;;;34.25;26.25;;;;;12.44;36.93;102526.34;5055309;28;45283;-77
2022/03/23 05:35:43;;;;;;;;;33.25;26.75;;;;;12.54;36.95;102542.25;5055163;28;45362;-77
2022/03/23 05:38:08;;;;;;;;;32.00;29.00;;;;;12.56;37.28;102546.66;5037029;28;45514;-76
2022/03/23 05:40:34;;;;;;;;;29.25;26.25;;;;;12.49;37.09;102524.44;5054878;28;45418;-76
2022/03/23 05:43:00;;;;;;;;;27.50;23.25;;;;;12.59;37.47;102543.88;5054845;28;45254;-77
2022/03/23 05:45:25;;;;;;;;;32.50;30.00;;;;;12.52;36.89;102529.72;5054913;28;45301;-76
2022/03/23 05:47:53;;;;;;;;;33.25;27.25;;;;;12.60;36.84;102550.16;5055033;28;45329;-77
2022/03/23 05:50:19;;;;;;;;;29.50;24.75;;;;;12.59;36.83;102549.25;5054586;28;45586;-76
2022/03/23 05:52:44;;;;;;;;;27.25;25.50;;;;;12.49;36.71;102524.44;5055112;28;45505;-76
2022/03/23 05:55:10;;;;;;;;;25.75;24.25;;;;;12.62;37.12;102548.31;5054722;28;45381;-76
2022/03/23 05:57:35;;;;;;;;;32.50;25.50;;;;;12.57;36.72;102528.72;5055538;28;45429;-74
2022/03/23 06:00:01;;;;;;;;;28.25;27.00;;;;;12.62;37.73;102541.13;5054968;28;45527;-74
2022/03/23 06:02:26;;;;;;;;;36.00;27.50;;;;;12.59;37.83;102534.97;5057508;28;45472;-78
2022/03/23 06:04:52;;;;;;;;;29.25;27.75;;;;;12.49;37.64;102513.66;5058250;28;45412;-78
2022/03/23 06:07:17;;;;;;;;;25.75;23.00;;;;;12.66;37.28;102550.00;5038928;28;45590;-77
2022/03/23 06:09:43;;;;;;;;;33.75;27.75;;;;;12.61;36.86;102527.69;5056370;28;45557;-76
2022/03/23 06:12:11;;;;;;;;;26.25;23.75;;;;;12.65;36.75;102542.84;5057087;28;46104;-77
2022/03/23 06:14:37;;;;;;;;;25.75;23.50;;;;;12.66;37.31;102550.00;5055143;28;45244;-79
2022/03/23 06:17:02;;;;;;;;;22.75;22.00;;;;;12.70;37.55;102549.00;5056154;28;45614;-77
2022/03/23 06:19:28;;;;;;;;;28.00;26.25;;;;;12.69;36.93;102544.53;5055906;28;45547;-80
2022/03/23 06:21:53;;;;;;;;;30.75;25.75;;;;;12.75;37.58;102557.84;5055341;28;45332;-76
2022/03/23 06:24:19;;;;;;;;;32.25;25.25;;;;;12.76;37.13;102568.53;5036496;28;45359;-76
2022/03/23 06:26:44;;;;;;;;;26.50;23.75;;;;;12.69;37.20;102548.09;5054983;28;45469;-80
2022/03/23 06:29:09;;;;;;;;;31.50;26.75;;;;;12.80;37.45;102572.06;5054640;28;45459;-77
2022/03/23 06:31:35;;;;;;;;;21.50;21.50;;;;;12.89;37.20;102572.72;5053974;28;45595;-75
2022/03/23 06:34:00;;;;;;;;;25.75;22.75;;;;;12.87;37.30;102563.78;5053858;28;45394;-74
2022/03/23 06:36:26;;;;;;;;;28.75;27.75;;;;;12.99;36.29;102575.16;5054987;28;45314;-75
2022/03/23 06:38:51;;;;;;;;;25.75;25.25;;;;;12.93;36.53;102564.56;5054086;28;45410;-74
2022/03/23 06:41:17;;;;;;;;;37.00;28.25;;;;;12.95;37.07;102568.97;5053648;28;45986;-75
2022/03/23 06:43:43;;;;;;;;;41.50;32.50;;;;;13.02;37.55;102586.72;5054013;28;45468;-77
2022/03/23 06:46:08;;;;;;;;;31.50;26.00;;;;;13.03;37.23;102585.78;5054241;28;45386;-75
2022/03/23 06:48:34;;;;;;;;;27.00;23.50;;;;;13.07;36.76;102586.59;5053691;28;45473;-74
2022/03/23 06:50:59;;;;;;;;;29.50;29.00;;;;;13.13;37.05;102591.81;5035652;28;46125;-75
2022/03/23 06:53:25;;;;;;;;;23.00;22.75;;;;;13.18;36.33;102601.56;5053764;28;45348;-74
2022/03/23 06:55:51;;;;;;;;;26.50;23.50;;;;;13.20;37.07;102607.78;5053900;28;45297;-76
2022/03/23 06:58:16;;;;;;;;;30.25;27.50;;;;;13.19;36.89;102603.34;5035541;28;47362;-77
2022/03/23 07:00:42;;;;;;;;;36.25;28.00;;;;;13.04;36.33;102573.22;5053750;28;45441;-75
2022/03/23 07:03:08;;;;;;;;;35.75;31.75;;;;;13.25;37.21;102613.97;5053420;28;45382;-75
2022/03/23 07:05:35;;;;;;;;;36.00;25.50;;;;;13.31;37.42;102615.59;5054116;28;45495;-75
2022/03/23 07:10:44;;;;;;;;;34.25;27.00;;;;;13.33;36.87;102608.34;5053414;28;45381;-72
2022/03/23 07:13:10;;;;;;;;;26.75;22.00;;;;;13.33;35.96;102616.44;5053356;28;45362;-76
2022/03/23 07:15:35;;;;;;;;;40.00;30.75;;;;;13.21;35.80;102620.34;5053980;28;45448;-75
2022/03/23 07:18:01;;;;;;;;;33.00;26.50;;;;;13.14;35.74;102616.06;5052968;28;45251;-74
2022/03/23 07:20:27;;;;;;;;;36.00;27.00;;;;;13.10;36.23;102619.69;5051974;28;46384;-76
2022/03/23 07:22:53;;;;;;;;;30.75;26.50;;;;;13.20;35.81;102623.06;5053385;28;45373;-74
2022/03/23 07:25:18;;;;;;;;;34.25;29.25;;;;;13.21;36.14;102623.03;5052638;28;45602;-74
2022/03/23 07:27:44;;;;;;;;;29.50;25.75;;;;;13.23;35.86;102620.31;5053758;28;45574;-76
2022/03/23 07:30:10;;;;;;;;;31.25;26.25;;;;;13.22;35.88;102613.16;5054988;28;45397;-75
2022/03/23 07:32:36;;;;;;;;;33.25;29.50;;;;;13.29;35.25;102620.13;5054604;28;45496;-74
2022/03/23 07:35:02;;;;;;;;;32.00;24.75;;;;;13.38;35.39;102624.38;5055395;28;45671;-76
2022/03/23 07:37:27;;;;;;;;;26.75;25.50;;;;;13.42;34.95;102620.69;5055240;28;45571;-75
2022/03/23 07:39:52;;;;;;;;;26.50;22.25;;;;;13.39;34.35;102605.50;5055877;28;45443;-76
2022/03/23 07:42:18;;;;;;;;;30.50;25.00;;;;;13.41;33.82;102611.72;5056043;28;45408;-75
2022/03/23 07:44:43;;;;;;;;;31.25;27.50;;;;;13.49;33.58;102622.28;5057005;28;45396;-77
2022/03/23 07:47:11;;;;;;;;;26.00;24.25;;;;;13.52;33.86;102631.19;5056441;28;45532;-75
2022/03/23 07:49:38;;;;;;;;;31.00;27.00;;;;;13.46;33.89;102600.81;5056684;28;45944;-74
2022/03/23 07:52:04;;;;;;;;;26.75;22.50;;;;;13.49;34.60;102608.81;5056375;28;45501;-75
2022/03/23 07:54:30;;;;;;;;;23.50;22.75;;;;;13.67;33.99;102621.75;5056755;28;45260;-75
2022/03/23 07:56:56;;;;;;;;;28.50;25.25;;;;;13.69;34.52;102627.13;5056175;28;45357;-76
2022/03/23 07:59:21;;;;;;;;;31.00;28.00;;;;;13.75;34.28;102637.72;5056603;28;46085;-74
2022/03/23 08:01:47;;;;;;;;;32.50;27.75;;;;;13.71;33.92;102646.81;5056737;28;45333;-75
2022/03/23 08:04:12;;;;;;;;;27.75;27.75;;;;;13.66;33.38;102655.03;5056435;28;45637;-74
2022/03/23 08:06:37;;;;;;;;;27.50;23.75;;;;;13.66;33.69;102646.94;5056301;28;45489;-77
2022/03/23 08:09:03;;;;;;;;;31.00;27.50;;;;;13.66;33.13;102649.63;5056021;28;45393;-76
2022/03/23 08:11:29;;;;;;;;;28.75;20.50;;;;;13.70;33.90;102655.81;5055822;28;45484;-75
2022/03/23 08:13:55;;;;;;;;;35.00;27.50;;;;;13.71;33.18;102649.50;5056375;28;45492;-76
2022/03/23 08:16:20;;;;;;;;;28.25;21.50;;;;;13.73;34.07;102651.22;5037942;28;45349;-74
2022/03/23 08:18:45;;;;;;;;;31.50;24.75;;;;;13.83;33.12;102662.63;5055907;28;45383;-78
2022/03/23 08:21:11;;;;;;;;;25.50;24.25;;;;;13.86;33.83;102660.75;5056055;28;45248;-76
2022/03/23 08:23:38;;;;;;;;;24.00;23.00;;;;;13.94;33.58;102660.53;5056370;28;45689;-75
2022/03/23 08:26:08;;;;;;;;;28.25;24.00;;;;;13.92;33.18;102655.16;5055522;28;46118;-75
2022/03/23 08:28:34;;;;;;;;;33.75;26.75;;;;;13.94;33.26;102655.13;5056125;28;45511;-75
2022/03/23 08:30:59;;;;;;;;;30.25;25.00;;;;;13.91;32.90;102649.81;5055466;28;45683;-76
2022/03/23 08:33:26;;;;;;;;;31.75;27.50;;;;;13.98;33.24;102656.78;5056093;28;45698;-76
2022/03/23 08:35:52;;;;;;;;;30.50;25.50;;;;;14.08;33.46;102665.50;5055858;28;45372;-76
2022/03/23 08:38:17;;;;;;;;;29.75;26.50;;;;;14.12;33.32;102659.09;5056184;28;45328;-76
2022/03/23 08:40:44;;;;;;;;;29.75;27.50;;;;;14.19;33.09;102660.66;5055773;28;45277;-74
2022/03/23 08:43:10;;;;;;;;;11.00;10.25;;;;;14.20;32.94;102657.03;5056142;28;45327;-77
2022/03/23 08:45:36;;;;;;;;;35.50;28.25;;;;;14.20;32.98;102663.31;5055540;28;45537;-76
2022/03/23 08:48:03;;;;;;;;;26.75;25.00;;;;;14.26;33.04;102670.34;5055759;28;45318;-76
2022/03/23 08:50:29;;;;;;;;;29.75;27.00;;;;;14.27;33.04;102669.41;5055711;28;45389;-77
2022/03/23 08:52:55;;;;;;;;;34.50;29.50;;;;;14.26;33.29;102664.94;5055114;28;45516;-76
2022/03/23 08:55:23;;;;;;;;;39.50;32.00;;;;;14.17;32.95;102652.63;5055487;28;45533;-75
2022/03/23 08:57:49;;;;;;;;;33.50;31.75;;;;;14.22;33.11;102665.94;5055801;28;46247;-77
2022/03/23 09:00:15;;;;;;;;;35.50;28.00;;;;;14.30;33.70;102666.59;5055674;28;45324;-76
2022/03/23 09:02:41;;;;;;;;;26.75;25.75;;;;;14.29;32.99;102656.75;5034461;28;45272;-76
2022/03/23 09:05:12;;;;;;;;;32.50;26.75;;;;;14.39;32.81;102671.75;5054271;28;45449;-75
2022/03/23 09:07:38;;;;;;;;;25.25;22.75;;;;;14.41;32.74;102666.31;5055364;28;45378;-75
2022/03/23 09:10:05;;;;;;;;;25.25;20.00;;;;;14.47;32.94;102664.28;5055165;28;45251;-75
2022/03/23 09:12:31;;;;;;;;;32.00;25.00;;;;;14.43;32.63;102665.34;5055619;28;45473;-76
2022/03/23 09:14:56;;;;;;;;;30.75;28.00;;;;;14.42;31.97;102651.88;5055766;28;45251;-75
2022/03/23 09:17:22;;;;;;;;;31.25;23.75;;;;;14.45;32.69;102666.19;5055152;28;45350;-76
2022/03/23 09:19:48;;;;;;;;;29.50;25.25;;;;;14.52;32.85;102654.25;5055480;28;45468;-75
2022/03/23 09:22:13;;;;;;;;;28.50;27.00;;;;;14.46;32.35;102634.69;5055421;28;45426;-76
2022/03/23 09:24:39;;;;;;;;;31.00;26.00;;;;;14.63;31.67;102662.03;5055420;28;45344;-74
2022/03/23 09:27:04;;;;;;;;;21.75;21.75;;;;;14.61;32.59;102648.56;5054922;28;45939;-78
2022/03/23 09:29:30;;;;;;;;;29.00;24.75;;;;;14.70;31.98;102650.97;5055624;28;45422;-76
2022/03/23 09:31:55;;;;;;;;;27.75;21.00;;;;;14.85;31.96;102660.38;5055291;28;45326;-75
2022/03/23 09:34:21;;;;;;;;;23.25;22.25;;;;;14.97;31.09;102656.38;5054907;28;45542;-77
2022/03/23 09:39:30;;;;;;;;;20.25;17.00;;;;;15.17;30.67;102658.38;5053969;28;45425;-74
2022/03/23 09:41:58;;;;;;;;;24.25;21.25;;;;;15.24;30.73;102655.41;5053894;28;45398;-76
2022/03/23 09:44:28;;;;;;;;;21.50;17.50;;;;;15.35;31.07;102658.63;5053984;28;45456;-75
2022/03/23 09:46:54;;;;;;;;;20.25;18.00;;;;;15.42;30.97;102662.88;5054505;28;45471;-75
2022/03/23 09:49:22;;;;;;;;;20.75;19.00;;;;;15.14;30.43;102598.09;5051221;28;45388;-74
2022/03/23 09:51:51;;;;;;;;;25.50;20.25;;;;;15.52;30.55;102653.50;5051263;28;45497;-76
2022/03/23 09:54:17;;;;;;;;;20.75;19.25;;;;;15.60;29.73;102649.66;5031655;28;46146;-76
2022/03/23 09:56:42;;;;;;;;;22.00;21.00;;;;;15.68;30.11;102661.97;5049398;28;45969;-76
2022/03/23 09:59:08;;;;;;;;;20.25;19.75;;;;;15.47;30.21;102609.56;5052937;28;45465;-74
2022/03/23 10:02:22;;;;;;;;;18.75;18.50;;;;;15.80;29.14;102657.94;5052176;28;45929;-76
2022/03/23 10:05:06;;;;;;;;;21.50;20.00;;;;;15.83;29.66;102650.56;5053384;28;45462;-74
2022/03/23 10:07:45;;;;;;;;;22.50;20.50;;;;;15.89;29.96;102657.59;5054361;28;45690;-76
2022/03/23 10:10:19;;;;;;;;;21.00;19.25;;;;;15.97;29.96;102655.50;5053595;28;45402;-76
2022/03/23 10:13:22;;;;;;;;;22.00;19.75;;;;;16.06;28.85;102654.25;5054125;28;45414;-77
2022/03/23 10:16:25;;;;;;;;;21.00;16.50;;;;;16.11;29.36;102650.41;5054306;28;45575;-76
2022/03/23 10:18:55;;;;;;;;;15.75;15.75;;;;;16.07;28.85;102629.84;5052127;28;46142;-77
2022/03/23 10:21:24;;;;;;;;;22.50;18.75;;;;;16.23;28.36;102649.06;5054313;28;45354;-75
2022/03/23 10:24:10;;;;;;;;;22.50;19.50;;;;;16.27;28.42;102643.47;5053568;28;45448;-75
2022/03/23 10:26:36;;;;;;;;;21.50;20.00;;;;;16.29;28.61;102643.41;5042972;28;45785;-75
2022/03/23 10:29:03;;;;;;;;;19.25;18.00;;;;;16.26;28.84;102633.56;5053426;28;46325;-73
2022/03/23 10:31:30;;;;;;;;;24.75;19.00;;;;;16.39;27.91;102646.63;5053907;28;45360;-75
2022/03/23 10:34:09;;;;;;;;;20.75;19.75;;;;;16.38;28.47;102628.63;5051901;28;45365;-76
2022/03/23 10:36:54;;;;;;;;;23.50;19.50;;;;;16.48;28.64;102640.84;5053268;28;45363;-77
2022/03/23 10:39:27;;;;;;;;;29.00;21.50;;;;;16.55;28.59;102636.94;5053498;28;46051;-73
2022/03/23 10:42:05;;;;;;;;;16.75;15.75;;;;;16.59;28.68;102636.75;5053674;28;45297;-75
2022/03/23 10:44:31;;;;;;;;;18.75;17.25;;;;;16.54;28.79;102613.53;5054112;28;45416;-75
2022/03/23 10:46:58;;;;;;;;;19.25;17.00;;;;;16.67;28.25;102627.50;5053976;28;45169;-77
2022/03/23 10:49:35;;;;;;;;;19.50;16.25;;;;;16.81;28.09;102630.50;5053180;28;45362;-76
2022/03/23 10:52:32;;;;;;;;;26.50;18.25;;;;;16.89;27.36;102628.34;5053136;28;45460;-78
2022/03/23 10:55:03;;;;;;;;;24.75;22.25;;;;;16.92;27.04;102620.09;5040815;28;45396;-76
2022/03/23 10:57:43;;;;;;;;;19.75;16.75;;;;;17.03;28.24;102618.66;5053096;28;45495;-76
2022/03/23 11:00:30;;;;;;;;;24.25;20.50;;;;;17.12;27.09;102619.22;5053771;28;45431;-74
2022/03/23 11:02:57;;;;;;;;;21.50;19.50;;;;;17.17;27.24;102618.09;5037870;28;45709;-76
2022/03/23 11:05:43;;;;;;;;;25.25;20.75;;;;;17.30;26.82;102621.13;5056487;28;45401;-75
2022/03/23 11:08:11;;;;;;;;;23.50;20.00;;;;;17.39;27.37;102610.75;5056736;28;45311;-75
2022/03/23 11:16:23;;;;;;;;;22.75;17.75;;;;;17.73;25.86;102607.44;5056727;28;45393;-76
2022/03/23 11:18:48;;;;;;;;;20.75;20.50;;;;;17.88;25.23;102596.81;5056382;28;45377;-76
2022/03/23 11:21:14;;;;;;;;;27.75;20.75;;;;;18.11;25.15;102605.63;5034818;28;47581;-77
2022/03/23 11:23:39;;;;;;;;;22.75;21.25;;;;;18.34;24.68;102604.50;5049180;28;45296;-77
2022/03/23 11:26:10;;;;;;;;;22.00;20.75;;;;;18.61;24.61;102596.00;5056955;28;45429;-76
2022/03/23 11:28:41;;;;;;;;;31.50;24.25;;;;;18.88;24.21;102581.88;5056433;28;45481;-74
2022/03/23 11:31:10;;;;;;;;;22.75;20.25;;;;;19.12;24.09;102567.97;5042280;28;46691;-81
2022/03/23 11:33:37;;;;;;;;;23.50;23.00;;;;;19.43;24.27;102576.25;5056916;28;45347;-76
2022/03/23 11:36:09;;;;;;;;;19.50;17.25;;;;;19.63;23.10;102583.38;5057392;28;45291;-76
2022/03/23 11:38:37;;;;;;;;;24.50;20.75;;;;;19.60;22.69;102565.38;5056943;28;45336;-80
2022/03/23 11:41:02;;;;;;;;;26.25;22.75;;;;;19.83;21.27;102563.19;5056804;28;46316;-80
2022/03/23 11:43:36;;;;;;;;;25.50;22.25;;;;;20.19;22.34;102573.88;5056481;28;45543;-77
2022/03/23 11:46:04;;;;;;;;;25.25;22.25;;;;;20.67;21.83;102562.84;5040939;28;45441;-77
2022/03/23 11:48:59;;;;;;;;;24.75;18.25;;;;;21.18;21.41;102565.31;5056560;28;45316;-77
2022/03/23 11:51:53;;;;;;;;;25.00;22.25;;;;;21.69;20.39;102553.81;5056978;28;45414;-79
2022/03/23 11:55:37;;;;;;;;;25.00;22.00;;;;;22.08;20.21;102561.34;5057570;28;45377;-82
2022/03/23 11:57:20;;;;;;;;;23.00;20.50;;;;;22.31;19.73;102539.81;5057210;28;45253;-80
2022/03/23 11:59:45;;;;;;;;;22.25;21.50;;;;;22.79;19.47;102549.34;5036636;28;46054;-78
2022/03/23 12:02:11;;;;;;;;;23.75;21.50;;;;;23.22;19.74;102539.00;5056542;28;46389;-78
2022/03/23 12:04:36;;;;;;;;;27.75;24.75;;;;;23.59;18.46;102531.78;5056606;28;45340;-78
2022/03/23 12:07:04;;;;;;;;;19.75;18.25;;;;;23.90;18.33;102536.81;5056855;28;45575;-80
2022/03/23 12:09:38;;;;;;;;;32.25;28.25;;;;;24.14;17.97;102517.66;5056665;28;45262;-79
2022/03/23 12:12:29;;;;;;;;;25.00;23.75;;;;;24.54;17.43;102525.63;5055666;28;46245;-77
2022/03/23 12:15:19;;;;;;;;;25.25;23.00;;;;;25.02;17.32;102529.19;5056279;28;45331;-82
2022/03/23 12:17:54;;;;;;;;;26.75;21.25;;;;;25.33;16.60;102517.53;5056522;28;45434;-83
2022/03/23 12:20:30;;;;;;;;;25.00;21.00;;;;;25.52;16.32;102483.97;5057051;28;45654;-87
2022/03/23 12:23:13;;;;;;;;;33.25;27.00;;;;;26.32;15.79;102503.88;5035093;28;47909;-81
2022/03/23 12:25:43;;;;;;;;;22.25;20.50;;;;;27.06;14.58;102497.41;5050014;28;45421;-75
2022/03/23 12:28:33;;;;;;;;;20.50;20.00;;;;;27.88;14.25;102494.66;5038422;28;45399;-81
2022/03/23 12:30:58;;;;;;;;;24.25;21.25;;;;;28.57;14.17;102492.78;5053792;28;45598;-82
2022/03/23 12:33:31;;;;;;;;;28.75;24.00;;;;;29.35;13.54;102488.00;5056357;28;46636;-80
2022/03/23 12:36:02;;;;;;;;;25.75;22.25;;;;;30.04;12.80;102494.00;5056078;28;45198;-79
2022/03/23 12:38:29;;;;;;;;;24.25;21.00;;;;;30.70;12.32;102470.66;5056454;28;45532;-78
2022/03/23 12:41:09;;;;;;;;;25.00;23.00;;;;;31.54;12.18;102482.88;5055000;28;45298;-79
2022/03/23 12:43:42;;;;;;;;;20.00;19.25;;;;;32.10;11.57;102477.72;5055047;28;45510;-81
2022/03/23 12:46:42;;;;;;;;;5.25;3.50;;;;;32.85;11.42;102473.00;5056469;28;45553;-78
2022/03/23 12:57:49;;;;;;;;;20.00;18.00;;;;;34.67;9.77;102409.59;5055227;28;45500;-77
2022/03/23 13:00:27;;;;;;;;;25.50;23.00;;;;;35.53;9.59;102456.47;5055199;28;45420;-79
2022/03/23 13:03:11;;;;;;;;;16.25;16.25;;;;;36.08;9.32;102446.66;5037109;28;45427;-80
2022/03/23 13:06:00;;;;;;;;;22.50;19.50;;;;;36.49;9.28;102434.91;5037580;28;48323;-79
2022/03/23 13:08:33;;;;;;;;;20.75;19.25;;;;;36.80;9.00;102443.78;5015250;28;45605;-78
2022/03/23 13:11:07;;;;;;;;;20.50;17.50;;;;;36.81;8.89;102445.53;5056261;28;45539;-82
2022/03/23 13:13:36;;;;;;;;;10.50;10.50;;;;;36.91;8.97;102446.03;5055792;28;45544;-80
2022/03/23 13:16:08;;;;;;;;;20.75;19.75;;;;;37.25;9.12;102434.06;5056169;28;46076;-82
2022/03/23 13:18:36;;;;;;;;;20.00;17.75;;;;;37.26;8.86;102432.97;5057850;28;45354;-81
2022/03/23 13:21:02;;;;;;;;;20.25;18.50;;;;;37.37;8.88;102423.13;5038428;28;45358;-82
2022/03/23 13:23:27;;;;;;;;;16.75;15.25;;;;;37.50;8.82;102423.22;5056739;28;45543;-82
2022/03/23 13:26:04;;;;;;;;;24.00;20.50;;;;;37.59;9.03;102435.09;5057936;28;45726;-81
2022/03/23 13:28:34;;;;;;;;;16.75;15.00;;;;;37.62;8.81;102441.16;5056611;28;45483;-83
2022/03/23 13:31:00;;;;;;;;;22.50;21.50;;;;;37.75;8.87;102427.25;5037157;28;45611;-82
2022/03/23 13:33:33;;;;;;;;;23.25;20.50;;;;;37.77;8.88;102418.63;5056242;28;45420;-83
2022/03/23 13:36:00;;;;;;;;;21.00;17.00;;;;;37.81;8.34;102423.59;5056171;28;46275;-80
2022/03/23 13:38:36;;;;;;;;;22.25;19.50;;;;;37.81;8.82;102411.53;5056124;28;45307;-81
2022/03/23 13:43:51;;;;;;;;;22.25;18.50;;;;;37.90;8.53;102415.00;5058180;28;45369;-81
2022/03/23 13:46:16;;;;;;;;;18.50;17.75;;;;;37.84;8.92;102409.19;5056845;28;45421;-81
2022/03/23 13:48:42;;;;;;;;;24.50;20.50;;;;;37.89;8.77;102414.13;5040347;28;45506;-81
2022/03/23 13:51:07;;;;;;;;;23.50;21.00;;;;;37.70;9.12;102396.19;5057825;28;45374;-83
2022/03/23 13:53:36;;;;;;;;;20.25;19.50;;;;;37.56;8.76;102397.19;5056947;28;45374;-82
2022/03/23 13:56:02;;;;;;;;;22.75;20.00;;;;;37.54;9.17;102392.84;5055279;28;47552;-81
2022/03/23 13:58:27;;;;;;;;;22.25;21.25;;;;;37.66;8.83;102408.91;5056978;28;45300;-82
2022/03/23 14:01:01;;;;;;;;;23.00;19.50;;;;;37.44;8.75;102360.53;5035546;28;45431;-83
2022/03/23 14:03:33;;;;;;;;;20.75;20.25;;;;;37.26;8.91;102384.56;5037949;28;45287;-82
2022/03/23 14:06:03;;;;;;;;;19.75;18.75;;;;;37.05;8.78;102383.53;5058939;28;46232;-82
2022/03/23 14:08:29;;;;;;;;;17.00;17.00;;;;;36.75;9.50;102382.88;5058905;28;45366;-81
2022/03/23 14:10:55;;;;;;;;;21.50;17.75;;;;;36.65;9.59;102378.72;5058353;28;45414;-83
2022/03/23 14:13:20;;;;;;;;;20.25;18.25;;;;;35.90;9.71;102354.13;5057054;28;45515;-82
2022/03/23 14:15:50;;;;;;;;;22.25;20.50;;;;;35.98;9.98;102370.75;5057202;28;45473;-79
2022/03/23 14:18:22;;;;;;;;;22.00;19.25;;;;;36.15;9.97;102363.84;5056609;28;45376;-79
2022/03/23 14:20:52;;;;;;;;;21.00;21.00;;;;;36.25;9.63;102366.31;5057233;28;45499;-80
2022/03/23 14:23:20;;;;;;;;;17.50;16.50;;;;;36.22;9.87;102370.38;5056145;28;45405;-81
2022/03/23 14:25:49;;;;;;;;;24.50;20.00;;;;;36.23;9.87;102355.34;5055908;28;46083;-82
2022/03/23 14:28:19;;;;;;;;;23.50;22.25;;;;;36.13;9.92;102360.38;5055704;28;45432;-81
2022/03/23 14:30:55;;;;;;;;;26.25;24.00;;;;;36.07;9.68;102366.75;5055320;28;45291;-81
2022/03/23 14:33:21;;;;;;;;;21.75;20.50;;;;;35.87;9.75;102354.50;5055263;28;45343;-81
2022/03/23 14:35:47;;;;;;;;;18.75;16.50;;;;;35.75;9.55;102350.50;5055688;28;45521;-81
2022/03/23 14:38:17;;;;;;;;;27.25;23.50;;;;;35.69;9.91;102348.47;5059275;28;46125;-81
2022/03/23 14:40:50;;;;;;;;;18.75;15.25;;;;;35.70;10.38;102373.41;5059293;28;45532;-81
2022/03/23 14:43:24;;;;;;;;;26.00;22.00;;;;;35.55;10.02;102373.44;5059111;28;45382;-82
2022/03/23 14:45:49;;;;;;;;;24.50;19.75;;;;;35.24;9.89;102351.34;5058675;28;46503;-81
2022/03/23 14:48:25;;;;;;;;;22.25;19.50;;;;;35.31;10.12;102359.78;5059718;28;45187;-81
2022/03/23 14:50:56;;;;;;;;;26.75;22.75;;;;;35.16;9.81;102344.97;5061359;28;45355;-82
2022/03/23 14:53:27;;;;;;;;;20.50;19.75;;;;;35.16;10.49;102350.56;5059763;28;45353;-82
2022/03/23 14:55:54;;;;;;;;;20.00;20.00;;;;;35.09;10.57;102353.25;5058491;28;46056;-81
2022/03/23 14:58:30;;;;;;;;;21.25;21.00;;;;;34.68;10.74;102354.75;5058397;28;45397;-81
2022/03/23 15:00:58;;;;;;;;;25.50;21.75;;;;;34.25;10.71;102346.09;5059419;28;45543;-80
2022/03/23 15:03:28;;;;;;;;;28.25;22.00;;;;;33.59;11.05;102338.34;5057802;28;45317;-82
2022/03/23 15:14:06;;;;;;;;;24.75;21.25;;;;;32.68;11.98;102339.66;5058701;28;45382;-81
2022/03/23 15:16:36;;;;;;;;;23.25;20.25;;;;;32.42;12.07;102332.59;5058426;28;45605;-81
2022/03/23 15:19:02;;;;;;;;;22.75;20.75;;;;;32.20;12.73;102331.41;5058475;28;45369;-82
2022/03/23 15:21:28;;;;;;;;;22.50;22.50;;;;;32.05;12.50;102324.78;5040225;28;45352;-80
2022/03/23 15:23:53;;;;;;;;;24.75;23.50;;;;;31.83;12.36;102327.16;5058669;28;45422;-80
2022/03/23 15:26:23;;;;;;;;;23.25;22.00;;;;;31.55;12.34;102329.34;5057623;28;45959;-80
2022/03/23 15:28:49;;;;;;;;;25.75;23.25;;;;;31.35;13.10;102325.13;5058267;28;45299;-80
2022/03/23 15:31:14;;;;;;;;;26.75;22.75;;;;;31.18;12.76;102328.84;5058238;28;45787;-81
2022/03/23 15:33:40;;;;;;;;;27.25;23.00;;;;;31.07;12.72;102324.47;5058285;28;45425;-80
2022/03/23 15:36:05;;;;;;;;;23.50;22.25;;;;;30.90;13.19;102294.94;5058715;28;46441;-83
2022/03/23 15:38:31;;;;;;;;;17.25;13.25;;;;;31.09;13.52;102321.53;5057612;28;45424;-83
2022/03/23 15:40:58;;;;;;;;;26.75;22.50;;;;;30.85;13.58;102291.81;5056837;28;45355;-82
2022/03/23 15:43:24;;;;;;;;;23.75;21.25;;;;;31.01;13.38;102310.41;5057224;28;45360;-83
2022/03/23 15:45:50;;;;;;;;;28.00;25.50;;;;;31.06;12.75;102322.69;5057111;28;45989;-81
2022/03/23 15:48:16;;;;;;;;;23.00;20.50;;;;;31.01;13.63;102325.13;5056836;28;45219;-77
2022/03/23 15:50:42;;;;;;;;;32.25;24.00;;;;;30.98;13.46;102314.34;5056574;28;45649;-83
2022/03/23 15:53:08;;;;;;;;;20.75;19.00;;;;;31.04;13.24;102319.25;5057089;28;45503;-80
2022/03/23 15:55:34;;;;;;;;;25.50;22.00;;;;;30.94;13.16;102318.50;5057618;28;45314;-85
2022/03/23 15:58:00;;;;;;;;;19.50;18.50;;;;;30.94;13.41;102312.97;5057246;28;45504;-81
2022/03/23 16:00:27;;;;;;;;;26.50;23.50;;;;;30.61;13.31;102302.75;5056958;28;45401;-79
2022/03/23 16:02:52;;;;;;;;;22.75;20.75;;;;;30.31;13.90;102288.31;5057045;28;45450;-80
2022/03/23 16:05:18;;;;;;;;;25.00;22.50;;;;;30.38;13.33;102294.94;5056456;28;45378;-76
2022/03/23 16:07:44;;;;;;;;;22.50;22.50;;;;;30.51;13.49;102313.91;5056849;28;45341;-77
2022/03/23 16:10:10;;;;;;;;;22.50;20.25;;;;;30.50;13.50;102308.50;5056730;28;45404;-77
2022/03/23 16:12:36;;;;;;;;;19.50;17.00;;;;;30.38;13.42;102289.41;5056599;28;45397;-80
2022/03/23 16:15:03;;;;;;;;;19.75;18.25;;;;;30.44;13.38;102315.56;5035032;28;47361;-80
2022/03/23 16:17:28;;;;;;;;;28.25;22.00;;;;;30.28;13.29;102282.25;5050494;28;45305;-81
2022/03/23 16:19:54;;;;;;;;;24.75;20.00;;;;;30.36;13.72;102296.16;5056897;28;45394;-77
2022/03/23 16:22:19;;;;;;;;;23.00;21.50;;;;;30.31;13.61;102293.84;5056423;28;45535;-78
2022/03/23 16:24:45;;;;;;;;;16.75;16.75;;;;;30.31;13.27;102315.13;5056139;28;46126;-77
2022/03/23 16:27:13;;;;;;;;;23.50;19.00;;;;;30.28;13.68;102308.03;5056084;28;45403;-76
2022/03/23 16:29:38;;;;;;;;;26.75;22.75;;;;;30.19;13.59;102300.69;5057236;28;45243;-77
2022/03/23 16:32:04;;;;;;;;;22.25;19.00;;;;;30.11;13.96;102305.28;5056206;28;45314;-83
2022/03/23 16:34:29;;;;;;;;;18.25;16.50;;;;;29.88;13.90;102285.50;5066048;28;46389;-83
2022/03/23 16:36:57;;;;;;;;;19.75;19.25;;;;;29.82;13.67;102299.97;5060083;28;45176;-82
2022/03/23 16:39:23;;;;;;;;;18.50;16.75;;;;;29.62;14.40;102308.41;5057109;28;45361;-83
2022/03/23 16:41:48;;;;;;;;;23.00;19.75;;;;;29.53;14.33;102314.88;5056165;28;45425;-83
2022/03/23 16:44:14;;;;;;;;;24.50;21.50;;;;;29.19;14.70;102291.63;5056284;28;46255;-81
2022/03/23 16:46:46;;;;;;;;;28.25;24.00;;;;;29.07;14.91;102318.63;5056113;28;45342;-81
2022/03/23 16:49:15;;;;;;;;;20.75;19.75;;;;;28.83;14.46;102321.91;5058133;28;45239;-82
2022/03/23 16:51:42;;;;;;;;;25.00;20.25;;;;;28.57;14.66;102326.31;5056076;28;45412;-82
2022/03/23 16:54:09;;;;;;;;;18.75;18.75;;;;;28.21;15.51;102327.97;5057452;28;45376;-79
2022/03/23 16:56:46;;;;;;;;;20.50;15.00;;;;;27.87;15.49;102316.50;5055731;28;45607;-80
2022/03/23 16:59:13;;;;;;;;;24.00;19.00;;;;;27.49;15.06;102300.75;5056187;28;45349;-81
2022/03/23 17:01:39;;;;;;;;;24.25;21.25;;;;;27.19;15.40;102307.22;5056099;28;45294;-81
2022/03/23 17:12:25;;;;;;;;;25.75;21.00;;;;;26.18;16.71;102329.06;5055877;28;45682;-81
2022/03/23 17:15:07;;;;;;;;;19.75;19.50;;;;;25.89;16.45;102325.19;5055794;28;46056;-81
2022/03/23 17:17:35;;;;;;;;;26.75;21.50;;;;;25.54;16.84;102312.56;5055636;28;45410;-81
2022/03/23 17:20:02;;;;;;;;;28.00;20.50;;;;;25.36;16.85;102329.69;5055901;28;45227;-80
2022/03/23 17:22:29;;;;;;;;;23.00;19.50;;;;;25.14;17.13;102336.09;5055441;28;45593;-79
2022/03/23 17:24:58;;;;;;;;;22.50;19.25;;;;;24.92;17.23;102333.38;5055440;28;45515;-80
2022/03/23 17:27:25;;;;;;;;;19.75;18.50;;;;;24.69;17.79;102335.19;5054558;28;45318;-79